TimeCST,TemperatureF,Dew PointF,Humidity,Sea Level PressureIn,VisibilityMPH,Wind Direction,Wind SpeedMPH,Gust SpeedMPH,PrecipitationIn,Events,Conditions,WindDirDegrees,DateUTC
12:53 AM,23.0,15.1,72,30.41,10.0,SSW,6.9,-,N/A,,Clear,200,2012-12-30 06:53:00
1:53 AM,21.9,15.1,75,30.41,10.0,South,5.8,-,N/A,,Clear,180,2012-12-30 07:53:00
2:53 AM,21.9,15.1,75,30.42,10.0,South,6.9,-,N/A,,Clear,180,2012-12-30 08:53:00
3:53 AM,21.9,15.1,75,30.42,10.0,South,8.1,-,N/A,,Clear,180,2012-12-30 09:53:00
4:53 AM,21.9,15.1,75,30.41,10.0,South,6.9,-,N/A,,Clear,180,2012-12-30 10:53:00
5:53 AM,23.0,16.0,74,30.41,10.0,South,8.1,-,N/A,,Clear,180,2012-12-30 11:53:00
6:53 AM,24.1,17.1,75,30.41,10.0,South,9.2,-,N/A,,Clear,170,2012-12-30 12:53:00
7:53 AM,25.0,17.1,72,30.41,10.0,South,8.1,-,N/A,,Clear,170,2012-12-30 13:53:00
8:53 AM,28.0,19.0,69,30.43,10.0,South,8.1,-,N/A,,Clear,180,2012-12-30 14:53:00
9:53 AM,34.0,23.0,64,30.42,10.0,South,9.2,-,N/A,,Clear,180,2012-12-30 15:53:00
10:53 AM,39.9,21.9,49,30.40,10.0,South,16.1,-,N/A,,Clear,190,2012-12-30 16:53:00
11:53 AM,43.0,18.0,37,30.36,10.0,SSW,15.0,23.0,N/A,,Clear,200,2012-12-30 17:53:00
12:53 PM,43.0,17.1,35,30.35,10.0,SSW,19.6,24.2,N/A,,Clear,210,2012-12-30 18:53:00
1:53 PM,44.1,16.0,32,30.31,10.0,SSW,20.7,-,N/A,,Clear,200,2012-12-30 19:53:00
2:53 PM,43.0,16.0,34,30.30,10.0,South,17.3,-,N/A,,Clear,180,2012-12-30 20:53:00
3:53 PM,42.1,15.1,34,30.30,10.0,South,15.0,-,N/A,,Clear,180,2012-12-30 21:53:00
4:53 PM,39.0,16.0,39,30.28,10.0,South,10.4,-,N/A,,Clear,180,2012-12-30 22:53:00
5:53 PM,37.9,17.1,43,30.28,10.0,South,13.8,-,N/A,,Clear,180,2012-12-30 23:53:00
6:53 PM,37.9,18.0,45,30.26,10.0,South,12.7,-,N/A,,Clear,180,2012-12-31 00:53:00
7:53 PM,37.0,18.0,46,30.25,10.0,South,10.4,-,N/A,,Clear,170,2012-12-31 01:53:00
8:53 PM,37.0,17.1,44,30.24,10.0,South,10.4,-,N/A,,Clear,180,2012-12-31 02:53:00
9:53 PM,37.0,17.1,44,30.22,10.0,South,11.5,-,N/A,,Clear,180,2012-12-31 03:53:00
10:53 PM,37.0,18.0,46,30.22,10.0,SSW,10.4,-,N/A,,Clear,200,2012-12-31 04:53:00
11:53 PM,37.0,19.0,48,30.24,10.0,SSW,12.7,-,N/A,,Clear,200,2012-12-31 05:53:00